Decoded Metar for OERF (RAFHA in SAUDI ARABIA) (IATA:RAH) | Meteo·Mobile Aviation Weather
aviador You're here:

OERF Decoded Metar

RAFHA in SAUDI ARABIA
Report Time2018-12-16 04:00:00
UTC Time2018-12-16 04:47:44
Flight Rules vfr VFR
Wind130° at 05 kt
W.Decomp.*RWY 11: 4.8 kt HW 1.5 kt RCW
W.Rank130° ranks 12
Current wind is below 130° avg. (8.2)
Visibility9999 m
Phenomena:N/A
Clouds:N/A
Expected CloudBase > 3,200 ft AGL from Temp-Dew spread
CeilingNone
Temp12°C (ISA -0)
Dew Point04°C (58% RH)
AAT8.9°C
QNH1025 hPa
Density Alt1,168 ft
Elevation1,467 ft
Report Wrong Elevation
Raw Report
METAR OERF 160400Z 13005KT CAVOK 12/04 Q1025=

Extra information for OERF:More info

Metar Taf Metar & Taf Last 4 Metars F.Rules Stats Wind Profile Meteogram Temp Stats Airport Information Weather charts Add Link Nearby VenuesMetar ALERT Operation Metar Decoded Social comments